Time;durP1;ratioP1;P1;durP2;ratioP2;P2;SDS_P1;SDS_P2;PMS_P1;PMS_P2;Temp;Humidity;BMP_temperature;BMP_pressure;BME280_temperature;BME280_humidity;BME280_pressure;Samples;Min_cycle;Max_cycle;Signal;HPM_P1;HPM_P2
2023/04/21 00:00:39;;;;;;;29.67;12.67;;;;;;;;;;5099525;28;20508;-73
2023/04/21 00:03:04;;;;;;;28.15;13.27;;;;;;;;;;5098052;28;20285;-72
2023/04/21 00:05:29;;;;;;;35.97;13.43;;;;;;;;;;5095561;28;20028;-73
2023/04/21 00:07:55;;;;;;;27.67;12.50;;;;;;;;;;5095881;28;20028;-72
2023/04/21 00:10:20;;;;;;;24.97;13.13;;;;;;;;;;5078784;28;20039;-73
2023/04/21 00:12:45;;;;;;;27.35;13.25;;;;;;;9.16;nan;100209.13;5096526;28;20261;-72
2023/04/21 00:15:11;;;;;;;31.65;13.68;;;;;;;;;;5093752;28;20023;-72
2023/04/21 00:17:36;;;;;;;35.33;14.98;;;;;;;;;;5079764;28;20478;-71
2023/04/21 00:20:03;;;;;;;37.37;14.00;;;;;;;;;;5095280;28;20039;-72
2023/04/21 00:22:29;;;;;;;28.58;13.93;;;;;;;;;;5097687;28;20371;-73
2023/04/21 00:24:54;;;;;;;24.98;13.88;;;;;;;;;;5077479;28;20110;-72
2023/04/21 00:27:20;;;;;;;25.17;12.50;;;;;;;;;;5078532;28;20165;-72
2023/04/21 00:29:45;;;;;;;29.25;13.50;;;;;;;;;;5096201;28;20474;-72
2023/04/21 00:32:10;;;;;;;28.00;13.93;;;;;;;;;;5096646;28;20095;-72
2023/04/21 00:34:35;;;;;;;24.17;11.98;;;;;;;;;;5096343;28;20760;-71
2023/04/21 00:37:01;;;;;;;29.00;13.38;;;;;;;;;;5098036;28;20067;-72
2023/04/21 00:39:26;;;;;;;26.52;13.30;;;;;;;;;;5093038;28;20034;-72
2023/04/21 00:41:52;;;;;;;30.00;13.03;;;;;;;;;;5091148;28;20439;-72
2023/04/21 00:44:17;;;;;;;25.37;12.10;;;;;;;;;;5079723;28;20287;-72
2023/04/21 00:46:42;;;;;;;29.50;13.70;;;;;;;;;;5077972;28;20084;-72
2023/04/21 00:49:08;;;;;;;23.35;12.77;;;;;;;;;;5095643;28;20272;-72
2023/04/21 00:51:34;;;;;;;27.75;12.00;;;;;;;;;;5079031;28;20027;-72
2023/04/21 00:54:01;;;;;;;25.20;13.30;;;;;;;;;;5094141;28;20032;-71
2023/04/21 00:56:27;;;;;;;23.45;12.68;;;;;;;;;;5080266;28;20067;-71
2023/04/21 00:58:52;;;;;;;28.58;12.45;;;;;;;;;;5079116;28;20119;-72
2023/04/21 01:01:17;;;;;;;32.58;12.35;;;;;;;;;;5095635;28;20118;-71
2023/04/21 01:03:43;;;;;;;24.77;12.25;;;;;;;;;;5095749;28;20486;-72
2023/04/21 01:06:09;;;;;;;21.40;11.32;;;;;;;;;;5080460;28;20031;-72
2023/04/21 01:08:34;;;;;;;27.13;11.73;;;;;;;;;;5095057;28;20049;-73
2023/04/21 01:10:59;;;;;;;25.95;12.07;;;;;;;;;;5094000;28;20023;-72
2023/04/21 01:13:25;;;;;;;25.47;12.07;;;;;;;;;;5091337;28;20103;-74
2023/04/21 01:15:50;;;;;;;25.67;12.27;;;;;;;;;;5092186;28;20272;-74
2023/04/21 01:18:17;;;;;;;29.13;12.60;;;;;;;;;;5091778;28;20350;-74
2023/04/21 01:20:43;;;;;;;25.52;12.60;;;;;;;;;;5091507;28;20035;-75
2023/04/21 01:23:09;;;;;;;26.98;12.45;;;;;;;;;;5077658;28;20039;-74
2023/04/21 01:25:34;;;;;;;23.52;11.80;;;;;;;;;;5092905;28;20024;-74
2023/04/21 01:28:00;;;;;;;25.80;12.43;;;;;;;;;;5095261;28;20030;-74
2023/04/21 01:30:25;;;;;;;27.35;12.23;;;;;;;;;;5091566;28;20039;-74
2023/04/21 01:32:50;;;;;;;26.63;12.93;;;;;;;;;;5095404;28;20669;-74
2023/04/21 01:35:16;;;;;;;20.42;11.93;;;;;;;;;;5078278;28;20477;-74
2023/04/21 01:37:41;;;;;;;24.98;11.05;;;;;;;;;;5090754;28;20027;-74
2023/04/21 01:40:08;;;;;;;22.57;11.80;;;;;;;;;;5091699;28;20378;-74
2023/04/21 01:42:34;;;;;;;27.45;12.75;;;;;;;;;;5072964;28;20285;-74
2023/04/21 01:44:59;;;;;;;21.92;11.32;;;;;;;;;;5093270;28;20030;-74
2023/04/21 01:47:25;;;;;;;21.75;11.00;;;;;;;;;;5094083;28;20386;-74
2023/04/21 01:49:50;;;;;;;25.38;12.40;;;;;;;;;;5092083;28;20039;-74
2023/04/21 01:52:16;;;;;;;23.25;11.73;;;;;;;;;;5094742;28;20092;-74
2023/04/21 01:54:41;;;;;;;24.93;11.60;;;;;;;;;;5094987;28;20534;-75
2023/04/21 01:57:06;;;;;;;24.73;11.80;;;;;;;;;;5077749;28;20289;-74
2023/04/21 01:59:32;;;;;;;26.40;12.07;;;;;;;;;;5078860;28;20660;-73
2023/04/21 02:01:57;;;;;;;29.15;12.75;;;;;;;;;;5082949;28;20488;-74
2023/04/21 02:04:22;;;;;;;27.50;11.70;;;;;;;;;;5092207;28;20032;-74
2023/04/21 02:06:47;;;;;;;28.43;11.83;;;;;;;;;;5075396;28;20027;-74
2023/04/21 02:09:13;;;;;;;27.23;12.45;;;;;;;;;;5077109;28;20035;-74
2023/04/21 02:11:38;;;;;;;23.80;12.27;;;;;;;;;;5081084;28;20028;-74
2023/04/21 02:14:03;;;;;;;23.80;11.93;;;;;;;;;;5092488;28;20263;-74
2023/04/21 02:16:29;;;;;;;24.03;12.23;;;;;;;;;;5085782;28;20039;-74
2023/04/21 02:18:55;;;;;;;25.38;11.68;;;;;;;;;;5092798;28;20800;-75
2023/04/21 02:21:21;;;;;;;25.98;11.50;;;;;;;;;;5096487;28;20024;-74
2023/04/21 02:23:46;;;;;;;28.15;12.18;;;;;;;;;;5078362;28;20509;-74
2023/04/21 02:26:11;;;;;;;23.23;11.90;;;;;;;;;;5080440;28;20027;-74
2023/04/21 02:28:37;;;;;;;26.93;11.97;;;;;;;;;;5075580;28;20279;-73
2023/04/21 02:31:02;;;;;;;26.07;11.80;;;;;;;;;;5083849;28;20028;-74
2023/04/21 02:33:28;;;;;;;26.17;12.57;;;;;;;;;;5094094;28;20020;-74
2023/04/21 02:35:53;;;;;;;23.50;11.75;;;;;;;;;;5094187;28;20268;-73
2023/04/21 02:38:18;;;;;;;29.33;12.57;;;;;;;;;;5092745;28;20420;-73
2023/04/21 02:40:44;;;;;;;26.13;12.63;;;;;;;;;;5091967;28;20031;-73
2023/04/21 02:43:09;;;;;;;27.90;12.50;;;;;;;;;;5093451;28;20303;-74
2023/04/21 02:45:35;;;;;;;24.38;11.43;;;;;;;;;;5093649;28;20020;-74
2023/04/21 02:48:01;;;;;;;31.00;11.93;;;;;;;;;;5081474;28;20046;-74
2023/04/21 02:50:26;;;;;;;25.20;12.80;;;;;;;;;;5093106;28;20020;-74
2023/04/21 02:52:51;;;;;;;27.77;11.80;;;;;;;;;;5094516;28;20043;-73
2023/04/21 02:55:16;;;;;;;28.40;11.57;;;;;;;;;;5078359;28;21104;-74
2023/04/21 02:57:42;;;;;;;23.52;11.85;;;;;;;;;;5077827;28;20468;-73
2023/04/21 03:00:10;;;;;;;25.20;12.10;;;;;;;;;;5077799;28;20091;-73
2023/04/21 03:02:35;;;;;;;27.42;12.18;;;;;;;;;;5084801;28;20040;-74
2023/04/21 03:05:01;;;;;;;31.70;13.47;;;;;;;;;;5076894;28;20024;-73
2023/04/21 03:07:26;;;;;;;29.17;12.40;;;;;;;;;;5080809;28;20363;-74
2023/04/21 03:09:51;;;;;;;26.97;12.10;;;;;;;;;;5077357;28;20032;-74
2023/04/21 03:12:16;;;;;;;32.27;11.80;;;;;;;;;;5080365;28;20020;-74
2023/04/21 03:14:42;;;;;;;24.43;12.03;;;;;;;;;;5078569;28;20028;-73
2023/04/21 03:17:07;;;;;;;24.03;12.30;;;;;;;;;;5075736;28;20327;-74
2023/04/21 03:19:32;;;;;;;30.10;12.75;;;;;;;;;;5078931;28;20264;-73
2023/04/21 03:21:58;;;;;;;26.43;12.13;;;;;;;;;;5076585;28;20081;-73
2023/04/21 03:24:23;;;;;;;23.60;11.53;;;;;;;6.63;nan;100184.53;5077072;28;20021;-74
2023/04/21 03:26:48;;;;;;;28.55;12.45;;;;;;;;;;5076792;28;20281;-73
2023/04/21 03:29:13;;;;;;;28.80;12.33;;;;;;;;;;5074644;28;20028;-73
2023/04/21 03:31:39;;;;;;;26.38;11.77;;;;;;;;;;5075404;28;20353;-74
2023/04/21 03:34:04;;;;;;;23.33;11.50;;;;;;;;;;5080192;28;20071;-74
2023/04/21 03:36:30;;;;;;;27.20;11.37;;;;;;;;;;5071236;28;20284;-73
2023/04/21 03:38:57;;;;;;;30.58;11.38;;;;;;;;;;5074699;28;20300;-74
2023/04/21 03:41:22;;;;;;;27.52;12.02;;;;;;;;;;5076457;28;20398;-73
2023/04/21 03:43:49;;;;;;;28.23;11.13;;;;;;;;;;5077225;28;20016;-73
2023/04/21 03:46:18;;;;;;;28.90;11.52;;;;;;;;;;5078605;28;20052;-73
2023/04/21 03:48:43;;;;;;;25.20;12.05;;;;;;;;;;5075797;28;20024;-73
2023/04/21 03:51:09;;;;;;;29.83;13.05;;;;;;;;;;5079711;28;20488;-73
2023/04/21 03:53:34;;;;;;;29.40;11.47;;;;;;;;;;5075976;28;20534;-73
2023/04/21 03:55:59;;;;;;;29.13;11.93;;;;;;;;;;5075675;28;20370;-73
2023/04/21 03:58:24;;;;;;;32.13;11.47;;;;;;;;;;5095507;28;20044;-74
2023/04/21 04:00:50;;;;;;;26.05;11.57;;;;;;;;;;5081595;28;20786;-74
2023/04/21 04:03:15;;;;;;;22.30;11.10;;;;;;;;;;5077327;28;20063;-71
2023/04/21 04:05:40;;;;;;;26.17;11.57;;;;;;;;;;5091182;28;20378;-71
2023/04/21 04:08:06;;;;;;;24.42;11.20;;;;;;;;;;5097232;28;20282;-70
2023/04/21 04:10:31;;;;;;;22.63;11.40;;;;;;;;;;5098553;28;20116;-70
2023/04/21 04:12:56;;;;;;;25.52;11.90;;;;;;;;;;5094675;28;20498;-69
2023/04/21 04:15:22;;;;;;;26.63;11.65;;;;;;;;;;5077259;28;20028;-70
2023/04/21 04:17:47;;;;;;;33.57;12.30;;;;;;;;;;5080090;28;20493;-70
2023/04/21 04:20:12;;;;;;;29.97;12.47;;;;;;;;;;5091256;28;20360;-71
2023/04/21 04:22:38;;;;;;;27.10;11.47;;;;;;;;;;5094785;28;20395;-76
2023/04/21 04:25:04;;;;;;;23.17;11.75;;;;;;;;;;5086613;28;20024;-71
2023/04/21 04:27:29;;;;;;;26.20;11.48;;;;;;;;;;5096007;27;20101;-70
2023/04/21 04:29:54;;;;;;;33.00;11.48;;;;;;;;;;5085604;27;20028;-70
2023/04/21 04:32:20;;;;;;;23.55;11.30;;;;;;;;;;5094672;27;20024;-69
2023/04/21 04:34:45;;;;;;;24.67;11.93;;;;;;;;;;5098737;27;20066;-70
2023/04/21 04:37:12;;;;;;;30.53;12.93;;;;;;;;;;5096481;28;20122;-71
2023/04/21 04:39:37;;;;;;;30.80;12.35;;;;;;;;;;5075042;28;20276;-71
2023/04/21 04:42:05;;;;;;;27.15;11.85;;;;;;;;;;5097809;28;20020;-71
2023/04/21 04:44:30;;;;;;;27.05;12.13;;;;;;;;;;5096284;28;20382;-71
2023/04/21 04:46:55;;;;;;;36.65;11.10;;;;;;;;;;5095554;28;20022;-71
2023/04/21 04:49:21;;;;;;;31.83;13.70;;;;;;;;;;5093700;28;20034;-70
2023/04/21 04:51:46;;;;;;;24.00;12.67;;;;;;;;;;5098720;28;20118;-71
2023/04/21 04:54:11;;;;;;;35.27;12.27;;;;;;;;;;5094642;28;20268;-69
2023/04/21 04:56:37;;;;;;;27.33;11.37;;;;;;;;;;5076729;28;20052;-72
2023/04/21 04:59:02;;;;;;;31.33;11.82;;;;;;;;;;5075525;28;20332;-71
2023/04/21 05:01:29;;;;;;;25.50;11.47;;;;;;;;;;5074810;28;20482;-71
2023/04/21 05:03:55;;;;;;;29.65;11.65;;;;;;;;;;5095753;28;20305;-71
2023/04/21 05:06:21;;;;;;;23.07;11.47;;;;;;;;;;5079228;28;20470;-71
2023/04/21 05:08:46;;;;;;;28.48;11.77;;;;;;;;;;5093833;28;20370;-69
2023/04/21 05:11:12;;;;;;;20.90;10.90;;;;;;;;;;5093893;28;20020;-70
2023/04/21 05:13:37;;;;;;;26.23;11.30;;;;;;;;;;5095289;28;20081;-71
2023/04/21 05:16:02;;;;;;;37.63;12.87;;;;;;;;;;5093610;28;20762;-69
2023/04/21 05:18:28;;;;;;;35.08;13.25;;;;;;;;;;5091280;28;20303;-70
2023/04/21 05:20:53;;;;;;;29.40;11.85;;;;;;;;;;5089497;28;20028;-70
2023/04/21 05:23:19;;;;;;;28.70;11.90;;;;;;;;;;5094784;28;20036;-70
2023/04/21 05:25:44;;;;;;;33.75;11.95;;;;;;;;;;5090740;28;20026;-69
2023/04/21 05:28:09;;;;;;;27.93;11.90;;;;;;;;;;5076991;28;20425;-71
2023/04/21 05:30:35;;;;;;;27.70;11.90;;;;;;;;;;5077863;28;20381;-71
2023/04/21 05:33:00;;;;;;;26.17;11.60;;;;;;;;;;5090351;28;20758;-71
2023/04/21 05:35:25;;;;;;;25.07;11.43;;;;;;;;;;5095305;28;20492;-71
2023/04/21 05:37:50;;;;;;;24.10;12.87;;;;;;;;;;5095300;28;20331;-72
2023/04/21 05:40:16;;;;;;;31.70;11.93;;;;;;;;;;5091015;28;20313;-72
2023/04/21 05:42:41;;;;;;;29.92;12.98;;;;;;;;;;5092919;28;20761;-72
2023/04/21 05:45:06;;;;;;;29.75;11.43;;;;;;;;;;5093076;28;20542;-72
2023/04/21 05:47:32;;;;;;;20.88;10.63;;;;;;;;;;5093381;28;20031;-70
2023/04/21 05:49:57;;;;;;;25.63;11.77;;;;;;;;;;5092616;28;20747;-71
2023/04/21 05:52:22;;;;;;;26.20;12.45;;;;;;;;;;5092513;28;20261;-72
2023/04/21 05:54:47;;;;;;;25.37;10.90;;;;;;;;;;5090711;28;20024;-73
2023/04/21 05:57:13;;;;;;;23.03;11.00;;;;;;;;;;5090182;28;20390;-72
2023/04/21 05:59:39;;;;;;;29.98;12.00;;;;;;;;;;5094746;28;20067;-72
2023/04/21 06:02:04;;;;;;;26.00;11.20;;;;;;;;;;5094929;28;20030;-72
2023/04/21 06:04:29;;;;;;;27.58;11.95;;;;;;;;;;5093211;28;20028;-70
2023/04/21 06:06:55;;;;;;;39.50;12.23;;;;;;;;;;5079390;28;20042;-72
2023/04/21 06:09:20;;;;;;;25.27;11.88;;;;;;;9.73;nan;100261.41;5095488;28;20276;-72
2023/04/21 06:11:45;;;;;;;23.40;12.20;;;;;;;;;;5079714;28;20019;-72
2023/04/21 06:14:11;;;;;;;22.93;11.23;;;;;;;;;;5077185;28;20382;-72
2023/04/21 06:16:36;;;;;;;29.70;12.67;;;;;;;;;;5090783;28;20306;-72
2023/04/21 06:19:01;;;;;;;26.73;11.40;;;;;;;10.18;nan;100267.03;5076562;28;20036;-73
2023/04/21 06:21:26;;;;;;;28.33;12.00;;;;;;;10.33;nan;100281.63;5093768;28;20406;-79
2023/04/21 06:23:52;;;;;;;27.45;12.45;;;;;;;10.29;nan;100260.22;5097619;28;20095;-79
2023/04/21 06:26:17;;;;;;;32.65;12.30;;;;;;;10.46;nan;100275.34;5077467;28;20024;-79
2023/04/21 06:28:43;;;;;;;37.03;12.88;;;;;;;10.59;nan;100283.03;5093378;28;20036;-73
2023/04/21 06:31:08;;;;;;;26.80;12.45;;;;;;;10.68;nan;100271.16;5093853;27;20792;-73
2023/04/21 06:33:34;;;;;;;27.85;12.15;;;;;;;10.84;nan;100275.72;5079323;28;20034;-79
2023/04/21 06:35:59;;;;;;;32.83;13.00;;;;;;;10.91;nan;100277.44;5080084;28;20038;-79
2023/04/21 06:38:25;;;;;;;32.10;12.52;;;;;;;10.97;nan;100276.53;5096571;28;20027;-73
2023/04/21 06:40:50;;;;;;;28.48;12.35;;;;;;;11.03;nan;100275.59;5099819;28;20139;-73
2023/04/21 06:43:16;;;;;;;25.55;11.43;;;;;;;11.12;nan;100268.16;5093016;28;20016;-73
2023/04/21 06:45:41;;;;;;;29.65;11.65;;;;;;;11.27;nan;100274.53;5096740;28;20081;-73
2023/04/21 06:48:06;;;;;;;26.65;11.60;;;;;;;11.34;nan;100271.75;5097250;28;20031;-72
2023/04/21 06:50:32;;;;;;;24.20;10.95;;;;;;;11.46;nan;100285.72;5077863;28;20028;-73
2023/04/21 06:52:57;;;;;;;23.90;10.98;;;;;;;;;;5097015;28;20023;-73
2023/04/21 06:55:23;;;;;;;26.45;10.27;;;;;;;;;;5097629;27;20027;-73
2023/04/21 06:57:48;;;;;;;25.47;10.17;;;;;;;;;;5086387;28;20058;-73
2023/04/21 07:00:13;;;;;;;20.60;9.85;;;;;;;;;;5097482;28;20855;-73
2023/04/21 07:02:40;;;;;;;22.65;9.73;;;;;;;;;;5098079;28;20217;-72
2023/04/21 07:05:06;;;;;;;21.20;9.40;;;;;;;;;;5088185;28;20028;-73
2023/04/21 07:07:31;;;;;;;19.67;9.23;;;;;;;;;;5095958;28;20023;-72
2023/04/21 07:09:57;;;;;;;22.17;9.60;;;;;;;;;;5098826;28;20031;-73
2023/04/21 07:12:22;;;;;;;25.90;9.82;;;;;;;;;;5096599;28;20016;-72
2023/04/21 07:14:47;;;;;;;24.53;8.13;;;;;;;;;;5096542;28;20036;-79
2023/04/21 07:17:12;;;;;;;19.53;8.17;;;;;;;;;;5088900;28;20020;-80
2023/04/21 07:19:38;;;;;;;18.83;7.40;;;;;;;;;;5098403;28;20351;-73
2023/04/21 07:22:03;;;;;;;24.00;8.18;;;;;;;;;;5093300;28;20286;-73
2023/04/21 07:24:29;;;;;;;20.83;7.50;;;;;;;;;;5099108;28;20035;-73
2023/04/21 07:26:54;;;;;;;20.08;7.57;;;;;;;;;;5096770;28;20308;-73
2023/04/21 07:29:19;;;;;;;24.50;8.43;;;;;;;;;;5098002;28;20027;-73
2023/04/21 07:31:47;;;;;;;24.73;7.20;;;;;;;;;;5095311;28;20470;-70
2023/04/21 07:34:12;;;;;;;13.38;6.65;;;;;;;;;;5086599;28;20265;-69
2023/04/21 07:36:37;;;;;;;15.00;7.03;;;;;;;;;;5096829;28;20490;-69
2023/04/21 07:39:03;;;;;;;21.77;7.03;;;;;;;;;;5098308;28;20110;-69
2023/04/21 07:41:28;;;;;;;16.13;7.32;;;;;;;;;;5079729;28;20275;-74
2023/04/21 07:43:54;;;;;;;17.00;6.55;;;;;;;;;;5096474;28;20112;-73
2023/04/21 07:46:20;;;;;;;16.77;5.97;;;;;;;;;;5092730;28;20039;-73
2023/04/21 07:48:45;;;;;;;9.77;5.38;;;;;;;;;;5095360;28;20442;-73
2023/04/21 07:51:10;;;;;;;15.97;5.10;;;;;;;;;;5095776;27;20168;-74
2023/04/21 07:53:36;;;;;;;17.08;4.85;;;;;;;;;;5093464;27;20272;-73
2023/04/21 07:56:01;;;;;;;10.03;4.50;;;;;;;;;;5094570;28;20024;-73
2023/04/21 07:58:26;;;;;;;15.80;4.85;;;;;;;;;;5103351;28;20780;-73
2023/04/21 08:00:52;;;;;;;22.50;4.43;;;;;;;;;;5096348;27;20081;-73
2023/04/21 08:03:17;;;;;;;15.87;4.63;;;;;;;;;;5077782;28;20276;-71
2023/04/21 08:05:42;;;;;;;23.37;4.50;;;;;;;;;;5096248;28;20020;-70
2023/04/21 08:08:07;;;;;;;11.50;4.13;;;;;;;;;;5096908;28;20038;-71
2023/04/21 08:10:33;;;;;;;13.20;4.20;;;;;;;;;;5097902;28;20038;-70
2023/04/21 08:12:58;;;;;;;16.13;4.15;;;;;;;;;;5096388;28;20264;-70
2023/04/21 08:17:58;;;;;;;12.43;4.00;;;;;;;;;;5178905;22;20064;-74
2023/04/21 08:20:24;;;;;;;13.97;3.60;;;;;;;;;;4998354;28;20018;-74
2023/04/21 08:22:49;;;;;;;15.32;4.68;;;;;;;;;;4986816;28;20294;-74
2023/04/21 08:25:14;;;;;;;21.00;3.80;;;;;;;;;;4998339;28;20022;-73
2023/04/21 08:27:40;;;;;;;15.03;3.80;;;;;;;;;;4979374;28;20037;-73
2023/04/21 08:30:06;;;;;;;16.50;4.18;;;;;;;;;;4999588;28;20411;-74
2023/04/21 08:32:31;;;;;;;13.68;4.20;;;;;;;;;;4979792;28;20029;-74
2023/04/21 08:34:57;;;;;;;22.77;4.57;;;;;;;;;;5000002;28;20037;-74
2023/04/21 08:37:22;;;;;;;21.77;4.05;;;;;;;;;;4992852;28;20022;-74
2023/04/21 08:39:49;;;;;;;19.20;4.20;;;;;;;;;;5000078;28;20030;-74
2023/04/21 08:42:18;;;;;;;17.10;4.22;;;;;;;;;;4984426;28;20034;-74
2023/04/21 08:44:43;;;;;;;16.17;4.15;;;;;;;;;;4981129;28;20045;-74
2023/04/21 08:47:09;;;;;;;17.80;3.85;;;;;;;;;;4988021;28;20030;-74
2023/04/21 08:49:35;;;;;;;13.52;4.40;;;;;;;;;;4999954;28;20034;-74
2023/04/21 08:52:01;;;;;;;14.98;4.32;;;;;;;;;;4976692;28;20073;-74
2023/04/21 08:54:26;;;;;;;19.07;4.10;;;;;;;;;;4998821;28;20030;-73
2023/04/21 08:56:51;;;;;;;15.60;4.70;;;;;;;15.76;nan;100289.09;4988392;28;20041;-74
2023/04/21 08:59:17;;;;;;;15.05;3.80;;;;;;;15.70;nan;100281.09;4997629;28;20479;-74
2023/04/21 09:02:31;;;;;;;12.00;3.97;;;;;;;15.73;nan;100288.56;4993383;28;20033;-74
2023/04/21 09:04:58;;;;;;;12.15;3.85;;;;;;;15.74;nan;100276.06;4982686;28;20065;-73
2023/04/21 09:07:32;;;;;;;13.50;3.83;;;;;;;15.85;nan;100288.31;4998561;28;20021;-74
2023/04/21 09:09:59;;;;;;;14.45;3.92;;;;;;;15.90;nan;100274.25;4999753;28;20034;-73
2023/04/21 09:12:24;;;;;;;10.55;3.65;;;;;;;15.95;nan;100274.25;4988235;28;20033;-74
2023/04/21 09:14:50;;;;;;;11.13;4.00;;;;;;;16.02;nan;100282.78;4998267;28;20384;-74
2023/04/21 09:17:16;;;;;;;16.67;4.30;;;;;;;16.00;nan;100286.75;4999941;28;20041;-74
2023/04/21 09:19:43;;;;;;;11.75;3.95;;;;;;;15.92;nan;100270.28;4986146;28;20096;-74
2023/04/21 09:22:08;;;;;;;16.70;3.83;;;;;;;15.94;nan;100262.03;4997649;28;20053;-75
2023/04/21 09:24:34;;;;;;;16.33;3.90;;;;;;;16.02;nan;100284.59;4999775;28;20510;-72
2023/04/21 09:27:02;;;;;;;13.55;3.75;;;;;;;16.08;nan;100287.00;4981671;28;20034;-73
2023/04/21 09:29:28;;;;;;;13.93;3.78;;;;;;;16.02;nan;100268.69;4995828;28;20025;-72
2023/04/21 09:31:53;;;;;;;15.73;3.70;;;;;;;16.04;nan;100278.00;4993853;28;20028;-73
2023/04/21 09:34:20;;;;;;;14.23;3.95;;;;;;;;;;4988235;28;20084;-72
2023/04/21 09:36:47;;;;;;;21.95;4.40;;;;;;;;;;4982407;28;20030;-70
2023/04/21 09:39:12;;;;;;;15.93;4.22;;;;;;;;;;4997834;28;20057;-66
2023/04/21 09:41:38;;;;;;;11.52;4.15;;;;;;;;;;4982647;28;20065;-71
2023/04/21 09:44:03;;;;;;;23.80;5.00;;;;;;;;;;4996578;28;20029;-71
2023/04/21 09:46:33;;;;;;;19.98;5.15;;;;;;;;;;4996064;28;20033;-69
2023/04/21 09:49:00;;;;;;;19.13;5.07;;;;;;;;;;4974325;28;20499;-69
2023/04/21 09:51:26;;;;;;;20.42;4.97;;;;;;;;;;4982166;28;20026;-69
2023/04/21 09:53:52;;;;;;;16.42;4.80;;;;;;;;;;4998073;28;20496;-70
2023/04/21 09:56:23;;;;;;;20.80;4.93;;;;;;;15.84;nan;100284.06;4998810;28;20045;-69
2023/04/21 09:58:51;;;;;;;12.80;5.55;;;;;;;;;;4997452;28;20037;-70
2023/04/21 10:01:18;;;;;;;13.13;5.03;;;;;;;;;;4989941;28;20026;-72
2023/04/21 10:03:45;;;;;;;18.40;5.68;;;;;;;;;;4999839;28;20033;-70
2023/04/21 10:06:10;;;;;;;19.58;5.22;;;;;;;;;;5005351;28;20022;-71
2023/04/21 10:08:36;;;;;;;12.70;5.78;;;;;;;;;;5005324;28;20042;-69
2023/04/21 10:11:02;;;;;;;23.13;4.88;;;;;;;;;;5005415;28;20536;-69
2023/04/21 10:13:28;;;;;;;16.52;5.35;;;;;;;;;;4985715;28;20772;-70
2023/04/21 10:16:02;;;;;;;14.07;5.35;;;;;;;;;;5006109;28;20045;-71
2023/04/21 10:18:28;;;;;;;12.48;4.32;;;;;;;16.27;nan;100241.34;5003878;28;20046;-71
2023/04/21 10:20:54;;;;;;;12.45;4.60;;;;;;;;;;5005068;28;20034;-70
2023/04/21 10:23:29;;;;;;;14.48;4.85;;;;;;;;;;5003159;28;20041;-70
2023/04/21 10:26:24;;;;;;;12.48;4.45;;;;;;;;;;5004248;28;20033;-71
2023/04/21 10:28:59;;;;;;;13.05;4.60;;;;;;;;;;4989113;28;20148;-70
2023/04/21 10:31:28;;;;;;;12.50;4.10;;;;;;;;;;5000657;28;20046;-71
2023/04/21 10:34:10;;;;;;;16.08;3.70;;;;;;;;;;5001394;28;20063;-70
2023/04/21 10:36:44;;;;;;;11.63;4.00;;;;;;;;;;4986056;28;20026;-71
2023/04/21 10:39:11;;;;;;;18.77;4.63;;;;;;;;;;5002809;28;20030;-74
2023/04/21 10:41:37;;;;;;;12.60;4.38;;;;;;;;;;5004770;28;20030;-74
2023/04/21 10:44:08;;;;;;;10.80;4.07;;;;;;;;;;5003366;28;20156;-74
2023/04/21 10:46:33;;;;;;;9.80;3.38;;;;;;;;;;5004381;28;20165;-73
2023/04/21 10:49:05;;;;;;;12.95;4.00;;;;;;;;;;4990837;28;20147;-74
2023/04/21 10:51:33;;;;;;;10.20;3.30;;;;;;;;;;5005586;28;20022;-71
2023/04/21 10:53:58;;;;;;;8.57;3.60;;;;;;;;;;5005481;28;20086;-73
2023/04/21 10:56:24;;;;;;;16.30;3.43;;;;;;;;;;4985576;28;20061;-73
2023/04/21 10:58:50;;;;;;;8.75;4.20;;;;;;;;;;5003776;28;20046;-73
2023/04/21 11:01:16;;;;;;;10.65;3.45;;;;;;;;;;4994279;28;20030;-74
2023/04/21 11:03:41;;;;;;;11.63;3.78;;;;;;;;;;5004640;28;20030;-74
2023/04/21 11:06:14;;;;;;;9.35;3.70;;;;;;;;;;4988507;28;20372;-74
2023/04/21 11:08:58;;;;;;;8.05;3.95;;;;;;;;;;5002127;28;20109;-74
2023/04/21 11:11:23;;;;;;;13.77;3.70;;;;;;;;;;5001561;28;20018;-72
2023/04/21 11:13:51;;;;;;;9.70;3.15;;;;;;;;;;4987032;28;20534;-74
2023/04/21 11:16:16;;;;;;;9.23;3.65;;;;;;;17.25;nan;100260.56;4985835;28;20368;-74
2023/04/21 11:18:42;;;;;;;11.20;3.38;;;;;;;;;;5000946;28;20049;-74
2023/04/21 11:21:11;;;;;;;7.30;3.35;;;;;;;;;;4985283;28;20041;-74
2023/04/21 11:23:42;;;;;;;10.25;3.60;;;;;;;;;;5002029;28;20018;-74
2023/04/21 11:26:07;;;;;;;10.55;3.42;;;;;;;;;;4990930;28;20048;-73
2023/04/21 11:28:32;;;;;;;13.50;3.60;;;;;;;;;;5000108;28;20030;-73
2023/04/21 11:30:58;;;;;;;6.43;3.50;;;;;;;;;;5000283;28;20614;-73
2023/04/21 11:33:23;;;;;;;11.60;3.60;;;;;;;;;;4999933;28;20075;-74
2023/04/21 11:35:50;;;;;;;13.73;4.28;;;;;;;;;;4990479;28;20036;-73
2023/04/21 11:38:17;;;;;;;10.95;3.25;;;;;;;;;;5000324;28;20373;-74
2023/04/21 11:40:48;;;;;;;8.57;3.45;;;;;;;;;;4997642;28;20038;-72
2023/04/21 11:43:14;;;;;;;8.15;3.15;;;;;;;;;;4990177;28;20044;-72
2023/04/21 11:45:40;;;;;;;14.07;3.08;;;;;;;;;;4999844;28;20565;-73
2023/04/21 11:48:15;;;;;;;7.80;2.90;;;;;;;;;;5000265;28;20031;-72
2023/04/21 11:50:45;;;;;;;11.00;3.30;;;;;;;;;;4989348;28;20034;-73
2023/04/21 11:53:13;;;;;;;8.90;3.50;;;;;;;17.82;nan;100200.63;4997515;28;20031;-72
2023/04/21 11:55:41;;;;;;;7.88;3.13;;;;;;;;;;4998560;28;20034;-73
2023/04/21 11:58:06;;;;;;;7.82;3.53;;;;;;;;;;4998912;28;20103;-72
2023/04/21 12:00:31;;;;;;;9.77;3.42;;;;;;;;;;5000401;28;20026;-72
2023/04/21 12:02:57;;;;;;;9.77;3.03;;;;;;;;;;4997559;28;20124;-72
2023/04/21 12:05:23;;;;;;;8.45;3.30;;;;;;;;;;4997940;28;20327;-72
2023/04/21 12:07:50;;;;;;;11.80;3.10;;;;;;;18.18;nan;100197.69;4997329;28;20030;-73
2023/04/21 12:10:16;;;;;;;12.75;3.53;;;;;;;;;;4999168;28;20026;-73
2023/04/21 12:12:42;;;;;;;9.77;3.38;;;;;;;;;;4985896;28;20116;-73
2023/04/21 12:15:09;;;;;;;6.65;3.08;;;;;;;18.46;nan;100273.38;4989380;28;20117;-73
2023/04/21 12:17:38;;;;;;;9.40;3.53;;;;;;;;;;4998989;28;20143;-72
2023/04/21 12:20:05;;;;;;;8.35;3.17;;;;;;;;;;4980087;28;20029;-72
2023/04/21 12:22:30;;;;;;;8.18;3.20;;;;;;;;;;4993947;28;20026;-72
2023/04/21 12:24:56;;;;;;;10.82;3.65;;;;;;;;;;4998314;28;20040;-72
2023/04/21 12:27:22;;;;;;;7.88;2.90;;;;;;;;;;4985470;28;20023;-69
2023/04/21 12:29:47;;;;;;;15.50;3.35;;;;;;;;;;5001392;28;20454;-70
2023/04/21 12:32:12;;;;;;;11.68;3.13;;;;;;;;;;4985106;28;20030;-72
2023/04/21 12:34:38;;;;;;;10.10;3.33;;;;;;;18.96;nan;100137.91;4983757;28;20037;-72
2023/04/21 12:37:04;;;;;;;9.60;2.90;;;;;;;18.93;nan;100157.16;4985234;28;20337;-72
2023/04/21 12:39:30;;;;;;;8.15;3.10;;;;;;;;;;4994068;28;20550;-72
2023/04/21 12:41:56;;;;;;;5.75;2.90;;;;;;;;;;4996421;28;20030;-72
2023/04/21 12:44:22;;;;;;;9.13;3.20;;;;;;;19.23;nan;100129.28;4996081;28;20018;-72
2023/04/21 12:46:48;;;;;;;7.32;2.95;;;;;;;;;;4987045;28;20034;-72
2023/04/21 12:49:14;;;;;;;11.32;3.15;;;;;;;19.37;nan;100117.84;4999658;28;20021;-73
2023/04/21 12:51:39;;;;;;;11.93;3.20;;;;;;;;;;4995135;28;20061;-73
2023/04/21 12:54:05;;;;;;;11.40;3.20;;;;;;;;;;4997067;28;20026;-71
2023/04/21 12:56:30;;;;;;;8.53;3.13;;;;;;;;;;4999562;28;20084;-74
2023/04/21 12:58:56;;;;;;;8.65;3.15;;;;;;;19.52;nan;100125.66;4983856;28;20303;-73
2023/04/21 13:01:23;;;;;;;8.88;3.08;;;;;;;19.55;nan;100181.94;4999242;28;20109;-72
2023/04/21 13:03:48;;;;;;;12.65;3.22;;;;;;;19.52;nan;100165.72;4997887;28;20108;-72
2023/04/21 13:06:14;;;;;;;8.82;2.80;;;;;;;;;;5000094;28;20680;-72
2023/04/21 13:08:39;;;;;;;9.38;2.90;;;;;;;19.41;nan;100111.66;5000681;28;20080;-72
2023/04/21 13:11:05;;;;;;;11.48;4.65;;;;;;;19.38;nan;100076.72;4998878;28;20038;-72
2023/04/21 13:13:30;;;;;;;12.60;3.20;;;;;;;;;;4996929;28;20098;-72
2023/04/21 13:15:56;;;;;;;17.70;3.50;;;;;;;19.42;nan;100107.09;4995257;28;20058;-72
2023/04/21 13:18:21;;;;;;;7.30;3.00;;;;;;;19.28;nan;100128.41;4988126;28;20054;-71
2023/04/21 13:20:47;;;;;;;7.85;3.60;;;;;;;19.24;nan;100066.00;4996016;28;20515;-71
2023/04/21 13:23:13;;;;;;;7.65;2.65;;;;;;;19.05;nan;100117.50;4996682;28;20025;-70
2023/04/21 13:25:39;;;;;;;8.32;2.95;;;;;;;19.15;nan;100182.50;4998387;28;20034;-71
2023/04/21 13:28:06;;;;;;;7.63;2.72;;;;;;;19.11;nan;100080.88;5001036;28;20029;-71
2023/04/21 13:30:32;;;;;;;11.07;2.72;;;;;;;19.04;nan;100115.94;4987518;28;20052;-71
2023/04/21 13:32:57;;;;;;;9.75;3.50;;;;;;;18.96;nan;100135.25;4981911;28;20130;-70
2023/04/21 13:35:23;;;;;;;9.50;2.83;;;;;;;18.94;nan;100101.91;4996141;28;20051;-71
2023/04/21 13:37:48;;;;;;;5.53;2.63;;;;;;;18.98;nan;100124.28;4996046;28;20028;-71
2023/04/21 13:40:14;;;;;;;10.55;2.75;;;;;;;19.03;nan;100109.00;4985468;28;20030;-71
2023/04/21 13:42:40;;;;;;;14.82;2.92;;;;;;;19.17;nan;100102.94;4983514;28;20023;-72